WXM80 ListenWXM80 Stop

You find our weather info also at:

UK Metoffice

WeatherCloud

Weather Underground

Northeastern Weather Network

AWEKAS

Citizen Weather Observer Program (CWOP)

HAMweather, WeatherForYou, PWS Weather


Weather Underground History page Text

Daily Summary for August 5, 2017 Units:  English    Metric   Both
« Previous Day
Next Day »
Daily Weekly Monthly Yearly Custom
  High: Low: Average:
Temperature: 82.8 °F 70.1 °F 75.4 °F
Dew Point: 73.3 °F 57.8 °F 68.7 °F
Humidity: 97 % 60 % 81 %
Wind Speed: 7.6 mph 0.0 mph 2.2 mph
Wind Gust: 15.0 mph - -
Wind:- - SW
Pressure: 29.92 in 29.77 in -
Precipitation: 0.01 in    
Historical Graphs
 
 
Tabular Data for August 5, 2017
Time Temperature Dew Point Pressure Wind Wind Speed Wind Gust Humidity Rainfall Rate (Hourly)
00:00 74.9 °F 72.1 °F 29.89 in SE 1.7 mph 3.5 mph 91 % 0.00 in
00:05 74.9 °F 72.1 °F 29.89 in South 1.7 mph 10.4 mph 91 % 0.00 in
00:11 75.0 °F 72.2 °F 29.89 in SSE 0.9 mph 3.5 mph 91 % 0.00 in
00:16 75.0 °F 72.2 °F 29.89 in SSE 3.1 mph 6.9 mph 91 % 0.00 in
00:21 75.1 °F 72.3 °F 29.89 in SE 3.0 mph 10.0 mph 91 % 0.00 in
00:26 75.1 °F 72.3 °F 29.89 in SE 2.0 mph 6.0 mph 91 % 0.00 in
00:31 75.2 °F 72.1 °F 29.89 in SE 1.0 mph 6.0 mph 90 % 0.00 in
00:36 75.3 °F 72.1 °F 29.89 in Calm   3.0 mph 90 % 0.00 in
00:41 75.2 °F 71.7 °F 29.89 in South 1.0 mph 10.0 mph 89 % 0.00 in
00:45 75.2 °F 71.7 °F 29.88 in SSE 4.2 mph 5.8 mph 89 % 0.00 in
00:50 75.2 °F 71.7 °F 29.89 in SE 1.0 mph 3.5 mph 89 % 0.00 in
00:56 75.2 °F 71.4 °F 29.88 in Calm   6.0 mph 88 % 0.00 in
01:01 75.2 °F 71.4 °F 29.88 in South 0.4 mph 2.3 mph 88 % 0.00 in
01:06 75.2 °F 71.4 °F 29.88 in SSE 1.5 mph 3.5 mph 88 % 0.00 in
01:11 75.2 °F 71.4 °F 29.88 in SSE 0.9 mph 3.5 mph 88 % 0.00 in
01:16 75.2 °F 71.4 °F 29.88 in SE 0.3 mph 3.5 mph 88 % 0.00 in
01:21 75.2 °F 71.7 °F 29.88 in SSE 1.1 mph 3.5 mph 89 % 0.00 in
01:26 75.2 °F 71.7 °F 29.87 in ESE 1.3 mph 3.5 mph 89 % 0.00 in
01:31 75.2 °F 71.7 °F 29.87 in SE 2.3 mph 6.9 mph 89 % 0.00 in
01:36 75.2 °F 71.7 °F 29.87 in SSE 0.7 mph 3.5 mph 89 % 0.00 in
01:41 75.2 °F 71.7 °F 29.87 in SSE 2.5 mph 6.9 mph 89 % 0.00 in
01:46 75.3 °F 71.8 °F 29.86 in SSE 1.7 mph 4.0 mph 89 % 0.00 in
01:51 75.3 °F 71.8 °F 29.86 in SE 0.3 mph 1.2 mph 89 % 0.00 in
01:56 75.4 °F 71.9 °F 29.86 in SSE 0.1 mph 2.0 mph 89 % 0.00 in
02:01 75.4 °F 71.9 °F 29.86 in SSE 0.7 mph 3.5 mph 89 % 0.00 in
02:06 75.4 °F 71.9 °F 29.86 in South 3.9 mph 9.0 mph 89 % 0.00 in
02:11 75.4 °F 72.3 °F 29.85 in SSE 0.3 mph 2.3 mph 90 % 0.00 in
02:16 75.4 °F 72.3 °F 29.85 in SE 4.7 mph 7.0 mph 90 % 0.00 in
02:21 75.5 °F 72.4 °F 29.85 in SE 6.1 mph 9.0 mph 90 % 0.00 in
02:26 75.5 °F 72.4 °F 29.85 in SE 4.0 mph 6.9 mph 90 % 0.00 in
02:27 75.5 °F 72.4 °F 29.85 in SSE 3.1 mph 6.9 mph 90 % 0.00 in
02:32 75.5 °F 72.4 °F 29.85 in SSE 4.5 mph 8.1 mph 90 % 0.00 in
02:37 75.5 °F 72.4 °F 29.85 in Calm   1.0 mph 90 % 0.00 in
02:42 75.5 °F 72.4 °F 29.85 in SE 0.6 mph 2.3 mph 90 % 0.00 in
02:47 75.5 °F 72.4 °F 29.85 in SW 0.4 mph 3.5 mph 90 % 0.00 in
02:52 75.5 °F 72.4 °F 29.85 in SSE 0.4 mph 2.3 mph 90 % 0.00 in
02:57 75.4 °F 72.3 °F 29.85 in SW 1.9 mph 4.6 mph 90 % 0.00 in
03:02 75.4 °F 72.3 °F 29.84 in SSE 0.2 mph 2.3 mph 90 % 0.00 in
03:07 75.4 °F 72.3 °F 29.84 in SSE 0.6 mph 3.5 mph 90 % 0.00 in
03:12 75.4 °F 72.3 °F 29.84 in South 3.7 mph 6.9 mph 90 % 0.00 in
03:17 75.4 °F 72.3 °F 29.84 in Calm     90 % 0.00 in
03:22 75.4 °F 72.3 °F 29.84 in SSE 0.4 mph 1.2 mph 90 % 0.00 in
03:27 75.4 °F 72.3 °F 29.84 in SE 0.4 mph 2.3 mph 90 % 0.00 in
03:32 75.3 °F 72.2 °F 29.83 in SSW 0.6 mph 3.5 mph 90 % 0.00 in
03:37 75.3 °F 72.2 °F 29.83 in Calm   1.2 mph 90 % 0.00 in
03:42 75.2 °F 72.1 °F 29.83 in SE 0.6 mph 3.5 mph 90 % 0.00 in
03:47 75.1 °F 72.0 °F 29.83 in SE 0.2 mph   90 % 0.00 in
03:52 75.1 °F 72.0 °F 29.83 in Calm   1.2 mph 90 % 0.00 in
03:57 75.0 °F 71.9 °F 29.83 in Calm     90 % 0.00 in
04:02 74.9 °F 71.4 °F 29.83 in SE 0.6 mph 3.0 mph 89 % 0.00 in
04:07 74.8 °F 71.3 °F 29.82 in Calm   2.3 mph 89 % 0.00 in
04:12 74.7 °F 71.2 °F 29.83 in Calm   1.2 mph 89 % 0.00 in
04:17 74.6 °F 71.1 °F 29.83 in SE 0.4 mph 1.0 mph 89 % 0.00 in
04:23 74.5 °F 71.4 °F 29.82 in SE 1.0 mph 2.3 mph 90 % 0.00 in
04:28 74.5 °F 71.4 °F 29.82 in SE 2.9 mph 5.0 mph 90 % 0.00 in
04:33 74.4 °F 71.3 °F 29.82 in SE 1.9 mph 4.0 mph 90 % 0.00 in
04:38 74.4 °F 71.6 °F 29.82 in Calm   1.2 mph 91 % 0.00 in
04:43 74.4 °F 71.6 °F 29.82 in SE 0.4 mph 3.5 mph 91 % 0.00 in
04:48 74.5 °F 72.0 °F 29.82 in SE 1.8 mph 3.5 mph 92 % 0.00 in
04:53 74.5 °F 72.0 °F 29.82 in SE 1.8 mph 3.5 mph 92 % 0.00 in
04:58 74.6 °F 72.4 °F 29.82 in SE 0.3 mph 5.0 mph 93 % 0.00 in
05:03 74.5 °F 72.3 °F 29.82 in SE 0.3 mph 3.5 mph 93 % 0.00 in
05:08 74.5 °F 72.3 °F 29.81 in SE 1.2 mph 3.5 mph 93 % 0.00 in
05:13 74.4 °F 72.2 °F 29.81 in SSE 4.0 mph 8.1 mph 93 % 0.00 in
05:18 74.4 °F 72.6 °F 29.81 in SE 1.6 mph 6.0 mph 94 % 0.00 in
05:23 74.4 °F 72.6 °F 29.81 in SSE 2.5 mph 6.9 mph 94 % 0.00 in
05:28 74.4 °F 72.6 °F 29.81 in SE 0.6 mph 3.5 mph 94 % 0.00 in
05:33 74.4 °F 72.6 °F 29.81 in SE 0.5 mph 3.5 mph 94 % 0.00 in
05:38 74.3 °F 72.5 °F 29.81 in SSE 1.9 mph 4.6 mph 94 % 0.00 in
05:43 74.3 °F 72.5 °F 29.82 in Calm   1.0 mph 94 % 0.00 in
05:48 74.3 °F 72.5 °F 29.81 in SE 0.9 mph 2.3 mph 94 % 0.00 in
05:53 74.3 °F 72.5 °F 29.81 in SE 0.1 mph 1.2 mph 94 % 0.00 in
05:58 74.3 °F 72.5 °F 29.81 in SE 0.5 mph 3.5 mph 94 % 0.00 in
06:03 74.2 °F 72.4 °F 29.81 in SSW 0.1 mph 3.5 mph 94 % 0.00 in
06:08 74.1 °F 72.3 °F 29.81 in SSE 1.3 mph 3.5 mph 94 % 0.00 in
06:13 74.0 °F 72.2 °F 29.81 in Calm   2.3 mph 94 % 0.00 in
06:18 73.9 °F 72.1 °F 29.81 in SSE 0.5 mph 1.2 mph 94 % 0.00 in
06:23 73.9 °F 72.1 °F 29.82 in SSE 0.1 mph 1.2 mph 94 % 0.00 in
06:29 73.8 °F 72.0 °F 29.82 in WSW 0.3 mph 1.2 mph 94 % 0.00 in
06:34 73.8 °F 72.3 °F 29.82 in SW 1.3 mph 5.8 mph 95 % 0.00 in
06:39 73.8 °F 72.3 °F 29.82 in SW 0.1 mph 2.3 mph 95 % 0.00 in
06:44 73.7 °F 72.2 °F 29.83 in SW 1.6 mph 3.5 mph 95 % 0.00 in
06:49 73.7 °F 72.2 °F 29.83 in SW 0.3 mph 2.3 mph 95 % 0.00 in
06:54 73.7 °F 72.2 °F 29.82 in Calm     95 % 0.00 in
06:59 73.7 °F 72.2 °F 29.82 in SE 1.0 mph 2.3 mph 95 % 0.00 in
07:04 73.7 °F 72.2 °F 29.80 in SE 3.5 mph 8.0 mph 95 % 0.00 in
07:09 73.7 °F 72.5 °F 29.79 in SE 5.5 mph 10.4 mph 96 % 0.00 in
07:14 73.7 °F 72.5 °F 29.79 in SE 1.2 mph 3.5 mph 96 % 0.00 in
07:19 73.7 °F 72.5 °F 29.79 in SSE 1.9 mph 6.9 mph 96 % 0.00 in
07:24 73.7 °F 72.5 °F 29.79 in SE 5.8 mph 9.0 mph 96 % 0.00 in
07:29 73.6 °F 72.4 °F 29.78 in ESE 6.5 mph 10.4 mph 96 % 0.00 in
07:34 73.6 °F 72.4 °F 29.78 in SE 3.5 mph 9.2 mph 96 % 0.00 in
07:39 73.6 °F 72.4 °F 29.78 in South 6.8 mph 15.0 mph 96 % 0.00 in
07:44 73.6 °F 72.4 °F 29.77 in SSE 6.1 mph 11.5 mph 96 % 0.00 in
07:49 73.7 °F 72.5 °F 29.77 in ESE 3.0 mph 6.9 mph 96 % 0.00 in
07:54 73.7 °F 72.5 °F 29.78 in SSE 4.9 mph 8.0 mph 96 % 0.00 in
08:00 73.7 °F 72.8 °F 29.78 in SSE 2.4 mph 6.9 mph 97 % 0.00 in
08:05 73.7 °F 72.5 °F 29.79 in South 0.1 mph 8.1 mph 96 % 0.00 in
08:10 73.4 °F 72.2 °F 29.79 in SSE 4.4 mph 9.2 mph 96 % 0.00 in
08:15 73.0 °F 71.5 °F 29.79 in SE 2.0 mph 8.1 mph 95 % 0.00 in
08:20 72.5 °F 71.0 °F 29.79 in SSE 0.1 mph 1.2 mph 95 % 0.00 in
08:25 72.3 °F 70.8 °F 29.80 in SSW 1.9 mph 3.5 mph 95 % 0.00 in
08:30 72.1 °F 70.6 °F 29.80 in SW 1.6 mph 5.8 mph 95 % 0.00 in
08:35 72.1 °F 70.6 °F 29.80 in West 0.9 mph 2.3 mph 95 % 0.00 in
08:40 72.0 °F 70.5 °F 29.81 in West 3.4 mph 6.9 mph 95 % 0.00 in
08:45 71.9 °F 70.4 °F 29.82 in WSW 1.2 mph 8.1 mph 95 % 0.00 in
08:50 71.9 °F 70.4 °F 29.81 in West 2.0 mph 4.6 mph 95 % 0.00 in
08:55 71.9 °F 70.4 °F 29.82 in SSW 2.9 mph 3.5 mph 95 % 0.00 in
09:00 71.8 °F 70.3 °F 29.82 in SW 0.3 mph 1.2 mph 95 % 0.00 in
09:06 71.8 °F 70.3 °F 29.82 in SW 2.0 mph 4.0 mph 95 % 0.00 in
09:11 71.8 °F 70.3 °F 29.82 in WSW 1.0 mph 6.0 mph 95 % 0.00 in
09:16 71.8 °F 70.3 °F 29.82 in Calm   6.0 mph 95 % 0.00 in
09:21 71.8 °F 70.3 °F 29.82 in Calm     95 % 0.00 in
09:26 71.8 °F 70.6 °F 29.82 in WSW 0.6 mph 3.5 mph 96 % 0.00 in
09:31 71.8 °F 70.6 °F 29.83 in SW 0.1 mph 1.2 mph 96 % 0.00 in
09:36 71.7 °F 70.5 °F 29.83 in Calm     96 % 0.00 in
09:41 71.8 °F 70.6 °F 29.83 in Calm     96 % 0.00 in
09:46 71.7 °F 70.5 °F 29.83 in Calm     96 % 0.00 in
09:51 71.7 °F 70.5 °F 29.83 in Calm     96 % 0.00 in
09:56 71.7 °F 70.5 °F 29.83 in Calm     96 % 0.00 in
10:01 71.8 °F 70.6 °F 29.83 in SW 0.4 mph 2.3 mph 96 % 0.00 in
10:06 71.8 °F 70.6 °F 29.83 in Calm     96 % 0.00 in
10:11 71.9 °F 70.7 °F 29.83 in Calm     96 % 0.00 in
10:16 72.1 °F 70.9 °F 29.83 in Calm   1.2 mph 96 % 0.00 in
10:21 72.4 °F 71.2 °F 29.83 in SW 0.5 mph 3.5 mph 96 % 0.00 in
10:26 72.7 °F 71.5 °F 29.83 in SW 0.2 mph 2.3 mph 96 % 0.00 in
10:31 73.2 °F 72.3 °F 29.83 in SSW 4.0 mph 10.4 mph 97 % 0.00 in
10:36 73.3 °F 72.1 °F 29.83 in West 1.2 mph 3.5 mph 96 % 0.00 in
10:41 73.3 °F 72.1 °F 29.83 in SW 0.3 mph 3.5 mph 96 % 0.00 in
10:46 73.5 °F 72.3 °F 29.83 in West 0.4 mph 3.5 mph 96 % 0.00 in
10:51 73.7 °F 72.2 °F 29.83 in WSW 2.6 mph 3.5 mph 95 % 0.00 in
10:56 73.8 °F 72.3 °F 29.83 in SW 1.4 mph 6.9 mph 95 % 0.00 in
11:02 73.9 °F 72.1 °F 29.83 in West 0.1 mph 1.2 mph 94 % 0.00 in
11:06 74.1 °F 72.3 °F 29.83 in WSW 0.5 mph 1.2 mph 94 % 0.00 in
11:11 74.3 °F 72.1 °F 29.83 in SSE 0.5 mph 2.3 mph 93 % 0.00 in
11:16 74.5 °F 72.0 °F 29.83 in SSE 0.8 mph 2.0 mph 92 % 0.00 in
11:21 74.6 °F 71.8 °F 29.83 in WSW 0.1 mph   91 % 0.00 in
11:27 74.9 °F 72.1 °F 29.83 in WSW 0.2 mph 1.2 mph 91 % 0.00 in
11:32 75.1 °F 72.3 °F 29.83 in SW 0.5 mph 4.6 mph 91 % 0.00 in
11:42 75.4 °F 72.6 °F 29.83 in WNW 0.4 mph 3.5 mph 91 % 0.00 in
11:47 75.7 °F 72.6 °F 29.83 in SW 1.4 mph 4.6 mph 90 % 0.00 in
11:52 76.1 °F 73.3 °F 29.83 in WSW 2.0 mph 2.3 mph 91 % 0.00 in
11:57 76.2 °F 72.7 °F 29.83 in WSW 3.2 mph 4.0 mph 89 % 0.00 in
12:02 76.4 °F 72.6 °F 29.83 in WSW 2.5 mph 4.6 mph 88 % 0.00 in
12:07 76.7 °F 72.5 °F 29.83 in West 3.7 mph 6.9 mph 87 % 0.00 in
12:12 77.0 °F 72.5 °F 29.83 in West 3.7 mph 6.9 mph 86 % 0.00 in
12:17 77.0 °F 71.8 °F 29.83 in West 2.9 mph 6.9 mph 84 % 0.00 in
12:22 77.1 °F 71.9 °F 29.83 in West 3.7 mph 6.0 mph 84 % 0.00 in
12:27 77.0 °F 71.8 °F 29.82 in WSW 1.1 mph 4.0 mph 84 % 0.00 in
12:32 77.1 °F 71.9 °F 29.82 in WSW 1.7 mph 3.5 mph 84 % 0.00 in
12:37 77.2 °F 72.3 °F 29.82 in WSW 0.6 mph 2.3 mph 85 % 0.00 in
12:42 77.2 °F 72.0 °F 29.82 in WSW 2.1 mph 6.9 mph 84 % 0.00 in
12:47 77.1 °F 71.5 °F 29.82 in WSW 0.6 mph 2.3 mph 83 % 0.00 in
12:52 77.1 °F 71.5 °F 29.82 in WSW 0.1 mph 3.5 mph 83 % 0.00 in
12:57 77.1 °F 71.5 °F 29.82 in Calm   1.0 mph 83 % 0.00 in
13:02 77.1 °F 71.5 °F 29.82 in West 1.1 mph 2.3 mph 83 % 0.00 in
13:07 77.1 °F 71.5 °F 29.82 in WSW 2.0 mph 3.5 mph 83 % 0.00 in
13:12 77.3 °F 72.1 °F 29.81 in West 0.8 mph 2.3 mph 84 % 0.00 in
13:13 77.3 °F 72.1 °F 29.81 in WSW 1.1 mph 3.5 mph 84 % 0.00 in
13:18 77.5 °F 71.6 °F 29.81 in SW 0.9 mph 3.5 mph 82 % 0.00 in
13:23 77.6 °F 71.3 °F 29.81 in SW 1.8 mph 3.5 mph 81 % 0.00 in
13:28 77.6 °F 71.3 °F 29.81 in SW 0.6 mph 2.3 mph 81 % 0.00 in
13:33 77.7 °F 71.4 °F 29.81 in WNW 3.2 mph 5.8 mph 81 % 0.00 in
13:38 77.9 °F 71.6 °F 29.81 in West 0.5 mph 3.5 mph 81 % 0.00 in
13:43 78.0 °F 72.1 °F 29.81 in WSW 3.4 mph 5.8 mph 82 % 0.00 in
13:48 78.1 °F 72.2 °F 29.80 in WSW 2.4 mph 3.5 mph 82 % 0.00 in
13:53 78.2 °F 71.9 °F 29.80 in West 0.6 mph 4.6 mph 81 % 0.00 in
13:58 78.2 °F 71.9 °F 29.80 in West 0.8 mph 3.5 mph 81 % 0.00 in
14:03 78.3 °F 72.3 °F 29.80 in WSW 1.1 mph 3.5 mph 82 % 0.00 in
14:08 78.4 °F 71.7 °F 29.80 in WSW 3.0 mph 5.8 mph 80 % 0.00 in
14:13 78.5 °F 71.4 °F 29.80 in West 1.6 mph 4.6 mph 79 % 0.00 in
14:18 78.7 °F 71.6 °F 29.80 in Calm   2.3 mph 79 % 0.00 in
14:23 78.9 °F 72.2 °F 29.80 in West 2.2 mph 4.6 mph 80 % 0.00 in
14:28 79.2 °F 72.1 °F 29.79 in West 2.6 mph 4.0 mph 79 % 0.00 in
14:33 79.6 °F 71.8 °F 29.79 in SW 5.7 mph 11.5 mph 77 % 0.00 in
14:38 79.8 °F 70.8 °F 29.80 in SW 4.4 mph 8.1 mph 74 % 0.00 in
14:43 79.8 °F 71.2 °F 29.79 in West 2.1 mph 5.8 mph 75 % 0.00 in
14:48 79.7 °F 71.1 °F 29.79 in WSW 4.3 mph 8.1 mph 75 % 0.00 in
14:53 79.7 °F 71.5 °F 29.79 in WSW 1.8 mph 4.6 mph 76 % 0.00 in
14:58 79.7 °F 71.5 °F 29.79 in WSW 5.9 mph 8.0 mph 76 % 0.00 in
15:04 79.7 °F 70.7 °F 29.79 in WNW 1.2 mph 5.8 mph 74 % 0.00 in
15:09 79.9 °F 70.9 °F 29.79 in WNW 2.1 mph 5.0 mph 74 % 0.00 in
15:14 80.2 °F 70.8 °F 29.79 in West 4.6 mph 6.9 mph 73 % 0.00 in
15:19 80.5 °F 70.6 °F 29.79 in West 4.7 mph 6.0 mph 72 % 0.00 in
15:24 80.8 °F 70.9 °F 29.79 in WNW 3.0 mph 4.6 mph 72 % 0.00 in
15:29 80.9 °F 70.6 °F 29.79 in West 2.5 mph 8.1 mph 71 % 0.00 in
15:34 81.0 °F 71.1 °F 29.78 in WSW 0.5 mph 4.6 mph 72 % 0.00 in
15:39 81.3 °F 70.2 °F 29.78 in West 3.6 mph 6.0 mph 69 % 0.00 in
15:44 81.7 °F 71.0 °F 29.78 in South 2.0 mph 5.8 mph 70 % 0.00 in
15:49 82.1 °F 71.3 °F 29.78 in SW 5.7 mph 10.4 mph 70 % 0.00 in
15:54 82.4 °F 69.4 °F 29.78 in West 4.3 mph 9.2 mph 65 % 0.00 in
15:59 82.6 °F 69.6 °F 29.78 in West 1.1 mph 4.0 mph 65 % 0.00 in
16:04 82.7 °F 69.3 °F 29.78 in WNW 1.6 mph 4.0 mph 64 % 0.00 in
16:09 82.8 °F 69.8 °F 29.78 in SSW 0.9 mph 2.3 mph 65 % 0.00 in
16:14 82.7 °F 68.8 °F 29.78 in WNW 2.6 mph 4.0 mph 63 % 0.00 in
16:19 82.7 °F 69.7 °F 29.78 in East 0.2 mph 1.2 mph 65 % 0.00 in
16:24 82.7 °F 69.3 °F 29.78 in WSW 2.5 mph 6.0 mph 64 % 0.00 in
16:29 82.5 °F 68.6 °F 29.78 in SW 3.3 mph 3.5 mph 63 % 0.00 in
16:34 82.4 °F 68.5 °F 29.78 in West 2.8 mph 6.9 mph 63 % 0.00 in
16:39 82.4 °F 69.4 °F 29.78 in NW 1.4 mph 5.8 mph 65 % 0.00 in
16:45 82.3 °F 68.4 °F 29.78 in WNW 4.4 mph 6.0 mph 63 % 0.00 in
16:50 82.2 °F 68.8 °F 29.78 in WSW 2.8 mph 5.8 mph 64 % 0.00 in
16:55 82.1 °F 68.7 °F 29.78 in WNW 2.4 mph 5.8 mph 64 % 0.01 in
17:00 82.1 °F 69.2 °F 29.78 in WNW 1.6 mph 5.8 mph 65 % 0.01 in
17:05 81.9 °F 68.5 °F 29.78 in WNW 1.2 mph 3.5 mph 64 % 0.01 in
17:10 81.7 °F 68.3 °F 29.79 in SW 2.1 mph 4.0 mph 64 % 0.01 in
17:15 81.5 °F 68.1 °F 29.78 in SW 2.3 mph 5.0 mph 64 % 0.01 in
17:25 81.1 °F 68.2 °F 29.79 in WNW 3.1 mph 5.8 mph 65 % 0.01 in
17:30 80.6 °F 67.7 °F 29.79 in WNW 1.6 mph 3.5 mph 65 % 0.01 in
17:35 80.4 °F 68.4 °F 29.79 in SSW 0.5 mph 3.5 mph 67 % 0.01 in
17:40 80.3 °F 68.3 °F 29.79 in WSW 2.5 mph 4.6 mph 67 % 0.01 in
17:45 80.0 °F 66.7 °F 29.79 in SW 1.3 mph 6.9 mph 64 % 0.01 in
17:50 79.8 °F 66.5 °F 29.79 in SW 5.1 mph 9.2 mph 64 % 0.01 in
17:55 79.6 °F 65.9 °F 29.79 in NNW 7.0 mph 12.7 mph 63 % 0.00 in
18:00 79.3 °F 65.1 °F 29.79 in WSW 3.8 mph 8.1 mph 62 % 0.00 in
18:05 79.1 °F 64.0 °F 29.79 in WNW 3.8 mph 10.4 mph 60 % 0.00 in
18:10 79.0 °F 64.4 °F 29.79 in WNW 2.7 mph 9.2 mph 61 % 0.00 in
18:15 78.8 °F 64.2 °F 29.79 in West 4.0 mph 6.9 mph 61 % 0.00 in
18:20 78.7 °F 64.1 °F 29.79 in West 4.1 mph 6.0 mph 61 % 0.00 in
18:25 78.6 °F 64.0 °F 29.80 in WNW 7.6 mph 10.4 mph 61 % 0.00 in
18:30 78.4 °F 63.4 °F 29.80 in SW 4.9 mph 9.2 mph 60 % 0.00 in
18:35 78.2 °F 63.2 °F 29.80 in WNW 4.8 mph 10.4 mph 60 % 0.00 in
18:40 78.0 °F 63.5 °F 29.80 in WSW 6.1 mph 9.2 mph 61 % 0.00 in
18:45 77.7 °F 63.6 °F 29.81 in West 0.5 mph 3.5 mph 62 % 0.00 in
18:50 77.6 °F 64.5 °F 29.81 in West 2.1 mph 9.2 mph 64 % 0.00 in
18:55 77.3 °F 64.2 °F 29.81 in WSW 3.8 mph 6.9 mph 64 % 0.00 in
19:00 77.0 °F 63.4 °F 29.81 in West 5.8 mph 11.0 mph 63 % 0.00 in
19:05 76.7 °F 62.7 °F 29.82 in West 1.2 mph 3.5 mph 62 % 0.00 in
19:10 76.6 °F 63.1 °F 29.82 in WSW 4.2 mph 8.1 mph 63 % 0.00 in
19:15 76.3 °F 63.2 °F 29.82 in West 3.6 mph 8.0 mph 64 % 0.00 in
19:20 76.1 °F 62.6 °F 29.82 in NNW 3.9 mph 9.2 mph 63 % 0.00 in
19:22 76.0 °F 62.9 °F 29.82 in WNW 4.6 mph 11.0 mph 64 % 0.00 in
19:27 75.9 °F 61.9 °F 29.83 in WNW 7.6 mph 12.7 mph 62 % 0.00 in
19:32 75.7 °F 61.8 °F 29.83 in NW 6.7 mph 10.4 mph 62 % 0.00 in
19:37 75.5 °F 61.1 °F 29.84 in West 6.9 mph 12.0 mph 61 % 0.00 in
19:42 75.3 °F 61.4 °F 29.83 in WNW 7.4 mph 10.4 mph 62 % 0.00 in
19:47 75.1 °F 60.3 °F 29.84 in WNW 5.2 mph 11.5 mph 60 % 0.00 in
19:52 74.9 °F 60.1 °F 29.84 in WNW 5.2 mph 10.4 mph 60 % 0.00 in
19:57 74.7 °F 59.9 °F 29.85 in WNW 0.5 mph 3.0 mph 60 % 0.00 in
20:02 74.6 °F 59.8 °F 29.85 in WNW 4.2 mph 8.1 mph 60 % 0.00 in
20:07 74.4 °F 59.6 °F 29.85 in NW 3.9 mph 10.4 mph 60 % 0.00 in
20:12 74.2 °F 59.9 °F 29.85 in WSW 1.2 mph 5.0 mph 61 % 0.00 in
20:17 74.0 °F 60.2 °F 29.85 in WNW 4.7 mph 11.0 mph 62 % 0.00 in
20:21 73.9 °F 59.6 °F 29.85 in West 5.2 mph 7.0 mph 61 % 0.00 in
20:26 73.7 °F 59.4 °F 29.85 in WNW 2.6 mph 5.8 mph 61 % 0.00 in
20:31 73.5 °F 59.7 °F 29.85 in West 4.9 mph 10.4 mph 62 % 0.00 in
20:36 73.4 °F 59.6 °F 29.86 in WNW 4.3 mph 9.0 mph 62 % 0.00 in
20:41 73.3 °F 59.5 °F 29.87 in West 2.6 mph 5.8 mph 62 % 0.00 in
20:46 73.3 °F 59.5 °F 29.87 in WSW 3.6 mph 4.6 mph 62 % 0.00 in
20:51 73.1 °F 59.8 °F 29.87 in NW 0.7 mph 5.8 mph 63 % 0.00 in
20:56 73.0 °F 59.7 °F 29.88 in SW 4.8 mph 7.0 mph 63 % 0.00 in
21:01 72.9 °F 59.6 °F 29.88 in WNW 4.4 mph 8.1 mph 63 % 0.00 in
21:06 72.8 °F 59.5 °F 29.88 in NNE 4.4 mph 11.5 mph 63 % 0.00 in
21:12 72.7 °F 58.9 °F 29.88 in WNW 4.7 mph 8.1 mph 62 % 0.00 in
21:17 72.7 °F 59.4 °F 29.88 in WSW 5.9 mph 9.2 mph 63 % 0.00 in
21:22 72.6 °F 59.3 °F 29.88 in West 2.3 mph 11.5 mph 63 % 0.00 in
21:27 72.6 °F 59.3 °F 29.89 in SW 2.3 mph 5.8 mph 63 % 0.00 in
21:32 72.6 °F 59.7 °F 29.89 in WNW 5.4 mph 7.0 mph 64 % 0.00 in
21:37 72.5 °F 59.6 °F 29.89 in WNW 2.9 mph 5.8 mph 64 % 0.00 in
21:42 72.4 °F 60.0 °F 29.89 in West 1.7 mph 3.5 mph 65 % 0.00 in
21:47 72.3 °F 59.9 °F 29.89 in WSW 0.2 mph 1.2 mph 65 % 0.00 in
21:52 72.3 °F 59.9 °F 29.89 in West 3.4 mph 10.0 mph 65 % 0.00 in
21:57 72.1 °F 59.7 °F 29.90 in SW 1.6 mph 5.0 mph 65 % 0.00 in
22:02 72.0 °F 60.0 °F 29.90 in Calm   1.2 mph 66 % 0.00 in
22:07 71.9 °F 59.9 °F 29.90 in WNW 3.2 mph 8.1 mph 66 % 0.00 in
22:12 71.8 °F 60.2 °F 29.89 in WNW 1.3 mph 4.6 mph 67 % 0.00 in
22:17 71.6 °F 58.8 °F 29.90 in WSW 5.0 mph 8.1 mph 64 % 0.00 in
22:22 71.6 °F 59.2 °F 29.90 in NW 4.2 mph 8.1 mph 65 % 0.00 in
22:27 71.6 °F 59.2 °F 29.90 in WNW 2.0 mph 3.5 mph 65 % 0.00 in
22:32 71.5 °F 59.1 °F 29.90 in WNW 4.0 mph 5.8 mph 65 % 0.00 in
22:37 71.4 °F 59.0 °F 29.90 in WNW 3.4 mph 8.1 mph 65 % 0.00 in
22:42 71.4 °F 59.0 °F 29.91 in West 3.3 mph 6.9 mph 65 % 0.00 in
22:47 71.3 °F 58.5 °F 29.90 in WNW 0.9 mph 4.0 mph 64 % 0.00 in
22:52 71.2 °F 58.8 °F 29.90 in West 4.4 mph 9.0 mph 65 % 0.00 in
22:57 71.1 °F 58.7 °F 29.90 in WNW 3.4 mph 10.4 mph 65 % 0.00 in
23:02 71.1 °F 58.7 °F 29.90 in WSW 3.5 mph 11.5 mph 65 % 0.00 in
23:12 70.9 °F 58.5 °F 29.90 in West 0.4 mph 3.5 mph 65 % 0.00 in
23:18 70.8 °F 58.4 °F 29.90 in WNW 1.9 mph 8.1 mph 65 % 0.00 in
23:20 70.8 °F 58.4 °F 29.91 in NW 2.3 mph 8.0 mph 65 % 0.00 in
23:25 70.7 °F 58.4 °F 29.91 in SW 2.4 mph 9.2 mph 65 % 0.00 in
23:30 70.6 °F 57.8 °F 29.91 in SSW 3.3 mph 8.1 mph 64 % 0.00 in
23:35 70.5 °F 58.2 °F 29.91 in West 2.2 mph 4.6 mph 65 % 0.00 in
23:40 70.4 °F 58.1 °F 29.91 in WNW 1.7 mph 4.6 mph 65 % 0.00 in
23:45 70.3 °F 58.0 °F 29.92 in West 4.9 mph 8.1 mph 65 % 0.00 in
23:50 70.2 °F 57.9 °F 29.92 in West 2.0 mph 3.5 mph 65 % 0.00 in
23:55 70.1 °F 58.2 °F 29.91 in NW 1.7 mph 3.5 mph 66 % 0.00 in
Crab Meadow Weather
Compliments of Weather Underground - 3 mb

Script developed by  Jim McMurry - jmcmurry@mwt.net Adapted for the template by  Wim van der Kuil - Leuven-Template.eu

Recycling: A used aluminum can is recycled and back on the grocery shelf as a new can, in as little as 60 days.